Time;durP1;ratioP1;P1;durP2;ratioP2;P2;SDS_P1;SDS_P2;PMS_P1;PMS_P2;Temp;Humidity;BMP_temperature;BMP_pressure;BME280_temperature;BME280_humidity;BME280_pressure;Samples;Min_cycle;Max_cycle;Signal;HPM_P1;HPM_P2
2022/03/01 00:00:05;;;;;;;8.23;4.00;;;;;;;1.48;55.77;101310.78;4433908;32;35009;-72
2022/03/01 00:02:57;;;;;;;6.80;3.30;;;;;;;1.30;55.44;101309.56;4434955;32;34865;-72
2022/03/01 00:05:46;;;;;;;7.97;3.58;;;;;;;1.23;55.54;101302.53;4435208;32;33944;-72
2022/03/01 00:08:32;;;;;;;7.65;3.85;;;;;;;1.49;55.38;101318.69;4446506;32;34576;-72
2022/03/01 00:11:20;;;;;;;6.68;3.20;;;;;;;1.28;55.55;101317.06;4435402;32;34638;-73
2022/03/01 00:14:06;;;;;;;6.43;3.30;;;;;;;1.50;54.88;101314.13;4435528;32;34182;-72
2022/03/01 00:16:54;;;;;;;5.32;3.10;;;;;;;1.95;53.82;101306.12;4449372;32;35132;-72
2022/03/01 00:19:40;;;;;;;7.87;3.58;;;;;;;1.30;54.59;101314.97;4437272;32;34675;-72
2022/03/01 00:22:26;;;;;;;7.12;3.20;;;;;;;1.33;55.11;101305.63;4449509;32;34742;-72
2022/03/01 00:25:12;;;;;;;5.53;3.22;;;;;;;1.58;54.69;101305.78;4448836;32;35491;-73
2022/03/01 00:27:59;;;;;;;6.20;3.40;;;;;;;1.64;53.98;101301.41;4437688;32;33849;-73
2022/03/01 00:30:46;;;;;;;8.90;3.67;;;;;;;1.15;55.71;101298.16;4436637;32;35204;-72
2022/03/01 00:33:32;;;;;;;7.65;3.28;;;;;;;1.02;56.02;101300.84;4448719;32;34641;-72
2022/03/01 00:36:19;;;;;;;7.05;3.67;;;;;;;1.34;55.21;101304.59;4436933;32;34342;-73
2022/03/01 00:39:07;;;;;;;7.57;4.03;;;;;;;1.22;55.49;101295.44;4425902;32;34207;-72
2022/03/01 00:41:53;;;;;;;6.43;3.15;;;;;;;1.06;55.63;101296.72;4436857;32;34692;-73
2022/03/01 00:44:40;;;;;;;6.78;3.20;;;;;;;0.75;56.14;101294.63;4449863;32;33764;-74
2022/03/01 00:47:26;;;;;;;7.40;3.10;;;;;;;1.18;55.21;101299.62;4441465;32;34567;-74
2022/03/01 00:50:13;;;;;;;8.85;3.50;;;;;;;0.83;56.07;101297.94;4453021;32;34212;-74
2022/03/01 00:52:59;;;;;;;9.27;3.22;;;;;;;0.80;56.33;101302.94;4451119;32;34301;-74
2022/03/01 00:55:46;;;;;;;7.20;3.45;;;;;;;1.12;55.33;101301.28;4450915;32;34652;-74
2022/03/01 00:58:32;;;;;;;7.53;3.40;;;;;;;0.84;55.98;101304.16;4451624;32;34831;-74
2022/03/01 01:01:19;;;;;;;5.28;3.20;;;;;;;0.84;56.33;101294.19;4451540;32;33940;-74
2022/03/01 01:04:05;;;;;;;6.10;2.83;;;;;;;0.90;55.28;101289.84;4452059;32;34633;-73
2022/03/01 01:06:52;;;;;;;6.07;2.87;;;;;;;0.65;56.25;101297.69;4440004;32;35033;-74
2022/03/01 01:09:38;;;;;;;5.70;2.67;;;;;;;1.20;54.80;101294.84;4439147;32;34731;-75
2022/03/01 01:12:25;;;;;;;4.78;2.70;;;;;;;1.85;52.98;101289.50;4451706;32;34152;-74
2022/03/01 01:15:14;;;;;;;7.55;3.33;;;;;;;1.08;54.51;101289.22;4451341;32;34641;-74
2022/03/01 01:18:00;;;;;;;5.93;3.00;;;;;;;1.22;54.83;101288.16;4438964;32;35115;-74
2022/03/01 01:20:47;;;;;;;10.95;3.25;;;;;;;1.09;55.30;101293.59;4440051;32;34571;-74
2022/03/01 01:23:33;;;;;;;9.02;3.47;;;;;;;0.92;55.32;101284.25;4439650;32;35155;-74
2022/03/01 01:26:19;;;;;;;7.43;3.25;;;;;;;1.20;54.64;101295.66;4439826;32;35185;-74
2022/03/01 01:29:06;;;;;;;7.05;3.90;;;;;;;0.49;55.89;101292.69;4428904;32;35974;-74
2022/03/01 01:31:52;;;;;;;5.60;2.75;;;;;;;1.27;54.51;101295.66;4444532;32;34596;-74
2022/03/01 01:34:38;;;;;;;6.97;2.92;;;;;;;1.72;53.10;101287.69;4447525;32;35019;-74
2022/03/01 01:37:24;;;;;;;7.12;2.92;;;;;;;1.62;52.91;101296.22;4432221;32;34585;-74
2022/03/01 01:40:15;;;;;;;7.20;3.50;;;;;;;1.07;54.41;101287.56;4444488;32;36430;-74
2022/03/01 01:43:02;;;;;;;6.15;3.35;;;;;;;0.78;55.28;101292.31;4435598;32;34158;-74
2022/03/01 01:45:49;;;;;;;10.32;3.33;;;;;;;0.95;55.32;101294.63;4430188;32;33846;-74
2022/03/01 01:48:35;;;;;;;5.70;2.55;;;;;;;0.70;55.28;101295.22;4444032;32;34587;-74
2022/03/01 01:51:21;;;;;;;6.00;2.70;;;;;;;1.15;54.55;101292.75;4432069;32;34885;-75
2022/03/01 01:54:08;;;;;;;6.12;3.40;;;;;;;0.51;56.12;101290.59;4436432;32;35770;-74
2022/03/01 01:56:54;;;;;;;8.88;3.20;;;;;;;0.31;56.74;101291.37;4436625;32;32725;-74
2022/03/01 01:59:41;;;;;;;6.03;2.90;;;;;;;0.64;55.52;101293.34;4442498;32;34682;-74
2022/03/01 02:02:27;;;;;;;7.43;3.15;;;;;;;0.99;55.04;101279.66;4429908;32;35869;-74
2022/03/01 02:05:14;;;;;;;6.45;3.10;;;;;;;0.77;55.45;101285.28;4434737;32;34628;-74
2022/03/01 02:08:01;;;;;;;7.03;3.30;;;;;;;0.62;55.19;101276.53;4439877;32;34251;-74
2022/03/01 02:10:47;;;;;;;6.97;2.80;;;;;;;0.87;54.74;101277.59;4446692;32;35643;-74
2022/03/01 02:13:34;;;;;;;6.60;3.30;;;;;;;0.73;54.94;101275.91;4440287;32;34985;-74
2022/03/01 02:16:20;;;;;;;5.95;2.87;;;;;;;0.75;54.86;101273.84;4429774;32;34303;-74
2022/03/01 02:19:11;;;;;;;5.72;3.00;;;;;;;0.53;55.22;101275.06;4432826;32;34132;-73
2022/03/01 02:21:58;;;;;;;3.77;2.10;;;;;;;0.39;55.80;101275.03;4445791;32;35577;-74
2022/03/01 02:24:44;;;;;;;3.67;2.33;;;;;;;0.87;54.28;101279.47;4432732;32;35803;-74
2022/03/01 02:27:30;;;;;;;5.62;2.72;;;;;;;0.42;55.54;101274.63;4442063;32;34655;-74
2022/03/01 02:30:17;;;;;;;8.27;3.17;;;;;;;0.25;55.42;101278.72;4443304;32;35071;-74
2022/03/01 02:33:05;;;;;;;7.57;2.83;;;;;;;0.14;55.43;101273.91;4433824;32;34977;-74
2022/03/01 02:35:51;;;;;;;5.53;2.83;;;;;;;0.53;55.52;101264.28;4445854;32;35056;-74
2022/03/01 02:38:37;;;;;;;6.25;2.78;;;;;;;0.76;54.09;101267.41;4428418;32;35433;-74
2022/03/01 02:41:25;;;;;;;9.05;2.90;;;;;;;1.22;53.57;101269.25;4442024;32;34207;-74
2022/03/01 02:44:13;;;;;;;7.12;2.85;;;;;;;0.64;54.23;101267.19;4429368;32;34582;-74
2022/03/01 02:46:59;;;;;;;5.22;2.80;;;;;;;1.03;53.26;101268.25;4429197;32;34869;-74
2022/03/01 02:49:46;;;;;;;4.55;2.33;;;;;;;0.90;52.98;101266.38;4441684;32;34628;-74
2022/03/01 02:52:33;;;;;;;4.70;2.30;;;;;;;0.74;53.78;101272.19;4447282;32;34348;-74
2022/03/01 02:55:19;;;;;;;6.37;2.50;;;;;;;0.95;53.23;101265.78;4431876;32;34602;-73
2022/03/01 02:58:05;;;;;;;4.75;2.28;;;;;;;0.51;54.08;101258.25;4446226;32;35965;-74
2022/03/01 03:00:52;;;;;;;6.12;2.20;;;;;;;0.58;54.72;101267.19;4418469;32;34656;-74
2022/03/01 03:03:38;;;;;;;5.32;2.20;;;;;;;0.39;54.27;101258.84;4441545;32;34182;-74
2022/03/01 03:06:24;;;;;;;5.65;2.55;;;;;;;1.34;52.37;101256.81;4431328;32;34704;-74
2022/03/01 03:09:11;;;;;;;6.47;2.70;;;;;;;0.86;53.04;101262.44;4441573;32;33914;-74
2022/03/01 03:11:57;;;;;;;5.75;2.55;;;;;;;1.28;52.32;101263.06;4440779;32;34162;-74
2022/03/01 03:14:44;;;;;;;6.05;2.50;;;;;;;1.38;52.29;101262.62;4440823;32;34272;-74
2022/03/01 03:17:31;;;;;;;5.47;2.62;;;;;;;1.05;53.15;101265.34;4438939;32;34860;-74
2022/03/01 03:20:17;;;;;;;5.70;2.60;;;;;;;1.37;51.79;101263.66;4435095;32;35003;-74
2022/03/01 03:23:05;;;;;;;5.45;2.28;;;;;;;0.39;53.88;101268.81;4443167;32;34684;-74
2022/03/01 03:25:51;;;;;;;4.72;2.33;;;;;;;1.11;52.79;101268.06;4441553;32;33805;-74
2022/03/01 03:28:37;;;;;;;5.10;2.78;;;;;;;1.16;52.86;101270.09;4442234;32;34409;-74
2022/03/01 03:31:24;;;;;;;5.05;2.50;;;;;;;0.99;52.95;101268.88;4432771;32;34882;-74
2022/03/01 03:34:10;;;;;;;5.72;2.50;;;;;;;1.53;51.27;101276.69;4433502;32;34584;-74
2022/03/01 03:36:57;;;;;;;4.53;2.12;;;;;;;0.85;52.43;101274.28;4427835;32;35094;-74
2022/03/01 03:39:43;;;;;;;3.92;2.12;;;;;;;1.34;51.81;101275.72;4431508;32;34594;-74
2022/03/01 03:42:30;;;;;;;5.55;2.22;;;;;;;1.00;52.72;101276.78;4443582;32;36054;-74
2022/03/01 03:45:16;;;;;;;7.07;2.47;;;;;;;0.87;52.41;101277.59;4434858;32;35570;-74
2022/03/01 03:48:03;;;;;;;6.32;2.42;;;;;;;1.51;51.41;101276.09;4428655;32;34384;-74
2022/03/01 03:50:49;;;;;;;3.95;2.17;;;;;;;1.56;51.17;101264.66;4433473;32;34524;-74
2022/03/01 03:53:36;;;;;;;5.93;2.75;;;;;;;1.67;50.44;101266.69;4444857;32;35978;-74
2022/03/01 03:56:22;;;;;;;6.62;2.53;;;;;;;1.64;50.52;101266.28;4432937;32;35460;-74
2022/03/01 03:59:09;;;;;;;4.80;1.98;;;;;;;1.42;50.50;101274.63;4430985;32;34183;-74
2022/03/01 04:01:55;;;;;;;5.65;2.35;;;;;;;1.23;52.00;101275.53;4429435;32;35494;-74
2022/03/01 04:04:42;;;;;;;5.93;3.10;;;;;;;1.72;50.46;101269.59;4440445;32;35907;-74
2022/03/01 04:07:29;;;;;;;5.03;2.20;;;;;;;1.77;50.04;101277.91;4427493;32;35191;-75
2022/03/01 04:10:17;;;;;;;5.40;2.37;;;;;;;1.80;50.27;101268.53;4440616;32;35034;-74
2022/03/01 04:13:04;;;;;;;4.65;2.12;;;;;;;1.95;49.57;101279.09;4420221;32;35555;-75
2022/03/01 04:15:50;;;;;;;5.35;2.20;;;;;;;1.45;50.53;101278.78;4431077;32;34961;-74
2022/03/01 04:18:37;;;;;;;5.45;2.40;;;;;;;1.77;50.36;101271.69;4429170;32;34663;-74
2022/03/01 04:21:23;;;;;;;5.75;2.40;;;;;;;1.66;50.57;101267.75;4426269;32;34132;-75
2022/03/01 04:24:10;;;;;;;5.10;2.62;;;;;;;1.31;52.01;101273.44;4443195;32;34649;-74
2022/03/01 04:26:57;;;;;;;6.00;2.42;;;;;;;1.09;53.05;101269.31;4433105;32;33475;-74
2022/03/01 04:29:45;;;;;;;5.80;2.30;;;;;;;1.12;52.69;101275.09;4432569;32;35614;-74
2022/03/01 04:32:31;;;;;;;5.95;2.60;;;;;;;0.99;53.12;101271.56;4425428;32;33777;-74
2022/03/01 04:35:17;;;;;;;6.10;2.72;;;;;;;0.65;54.03;101273.41;4428605;32;34687;-74
2022/03/01 04:38:04;;;;;;;6.20;2.62;;;;;;;0.85;54.04;101279.69;4428574;32;36610;-74
2022/03/01 04:40:50;;;;;;;5.07;2.53;;;;;;;0.07;55.95;101268.50;4417170;32;35665;-74
2022/03/01 04:43:37;;;;;;;6.80;2.60;;;;;;;0.55;55.00;101278.41;4417223;32;34325;-74
2022/03/01 04:46:23;;;;;;;6.80;2.62;;;;;;;0.74;54.44;101277.59;4430079;32;35841;-74
2022/03/01 04:49:09;;;;;;;6.78;3.40;;;;;;;0.71;54.39;101272.59;4426764;32;34637;-74
2022/03/01 04:51:56;;;;;;;8.23;2.67;;;;;;;0.61;54.86;101275.69;4430491;32;34692;-74
2022/03/01 04:54:42;;;;;;;5.60;2.70;;;;;;;-0.04;56.46;101286.06;4424866;32;35058;-74
2022/03/01 04:57:31;;;;;;;8.05;3.20;;;;;;;0.60;55.27;101275.91;4428455;32;35072;-72
2022/03/01 05:00:18;;;;;;;7.37;3.40;;;;;;;0.59;55.16;101272.38;4429377;32;35995;-72
2022/03/01 05:03:05;;;;;;;8.23;3.22;;;;;;;0.32;56.10;101276.88;4413905;32;35164;-72
2022/03/01 05:05:51;;;;;;;7.10;3.30;;;;;;;0.48;55.90;101277.53;4424214;32;33677;-72
2022/03/01 05:08:37;;;;;;;8.38;3.08;;;;;;;0.34;56.21;101264.03;4429638;32;34708;-72
2022/03/01 05:11:24;;;;;;;10.43;3.35;;;;;;;0.50;56.09;101260.13;4414892;32;35691;-72
2022/03/01 05:14:10;;;;;;;8.70;3.25;;;;;;;0.39;56.34;101264.22;4415723;32;34583;-73
2022/03/01 05:16:57;;;;;;;7.30;3.20;;;;;;;0.38;55.89;101267.97;4433532;32;35094;-73
2022/03/01 05:19:43;;;;;;;8.75;3.37;;;;;;;0.60;55.54;101271.34;4429836;32;34733;-73
2022/03/01 05:22:30;;;;;;;7.30;3.17;;;;;;;0.72;54.86;101268.88;4403692;32;35016;-73
2022/03/01 05:25:19;;;;;;;8.88;3.40;;;;;;;-0.25;57.63;101272.72;4413324;32;34146;-73
2022/03/01 05:28:05;;;;;;;8.43;3.08;;;;;;;-0.14;56.96;101269.47;4426723;32;34194;-72
2022/03/01 05:30:51;;;;;;;9.38;3.35;;;;;;;-0.08;57.62;101273.22;4430217;32;35717;-73
2022/03/01 05:33:38;;;;;;;6.35;2.87;;;;;;;0.30;56.39;101262.78;4436680;32;34997;-73
2022/03/01 05:36:24;;;;;;;9.35;3.58;;;;;;;0.12;57.08;101273.31;4447813;32;34810;-73
2022/03/01 05:39:10;;;;;;;7.10;2.90;;;;;;;0.56;55.55;101266.56;4448117;32;34292;-73
2022/03/01 05:41:59;;;;;;;8.23;2.75;;;;;;;-0.41;57.35;101273.87;4437145;32;35238;-73
2022/03/01 05:44:45;;;;;;;10.52;3.15;;;;;;;-1.36;60.42;101276.06;4447526;32;34902;-73
2022/03/01 05:47:32;;;;;;;9.40;2.85;;;;;;;-0.82;58.71;101276.53;4448659;32;34644;-73
2022/03/01 05:50:19;;;;;;;7.25;3.25;;;;;;;-0.44;58.41;101271.59;4435017;32;34032;-73
2022/03/01 05:53:07;;;;;;;8.13;3.12;;;;;;;-0.04;57.92;101278.00;4446819;32;34645;-73
2022/03/01 05:55:53;;;;;;;10.55;3.17;;;;;;;-0.82;59.59;101276.53;4448909;32;36061;-73
2022/03/01 05:58:40;;;;;;;6.32;3.20;;;;;;;0.04;56.74;101281.56;4444537;32;34694;-72
2022/03/01 06:01:26;;;;;;;8.50;3.20;;;;;;;0.27;56.52;101276.66;4445895;32;33939;-72
2022/03/01 06:04:13;;;;;;;7.50;3.17;;;;;;;0.54;54.64;101280.25;4433377;32;34660;-72
2022/03/01 06:07:00;;;;;;;7.32;3.60;;;;;;;0.32;53.98;101273.38;4436405;32;34975;-73
2022/03/01 06:09:46;;;;;;;7.18;2.50;;;;;;;-0.34;56.99;101290.06;4445896;32;34235;-73
2022/03/01 06:12:32;;;;;;;14.63;2.72;;;;;;;-1.26;60.21;101286.47;4447320;32;33776;-72
2022/03/01 06:15:18;;;;;;;5.85;2.33;;;;;;;-0.88;58.71;101288.03;4435496;32;34633;-73
2022/03/01 06:18:05;;;;;;;7.68;2.83;;;;;;;-0.61;57.57;101292.59;4435844;32;34984;-72
2022/03/01 06:20:51;;;;;;;8.25;2.90;;;;;;;0.13;54.49;101285.72;4447010;32;34320;-72
2022/03/01 06:23:37;;;;;;;4.95;2.72;;;;;;;-0.82;57.80;101289.97;4445374;32;34135;-73
2022/03/01 06:26:24;;;;;;;8.18;2.50;;;;;;;0.12;55.71;101292.16;4444315;32;33959;-72
2022/03/01 06:29:10;;;;;;;7.68;2.72;;;;;;;0.25;54.87;101291.37;4433315;32;35654;-73
2022/03/01 06:31:57;;;;;;;7.85;3.42;;;;;;;-0.43;56.98;101285.88;4424668;32;35569;-73
2022/03/01 06:34:43;;;;;;;7.50;2.92;;;;;;;0.66;54.04;101285.88;4421389;32;33928;-73
2022/03/01 06:37:49;;;;;;;6.32;2.03;;;;;;;0.08;54.83;101282.81;4421873;32;34565;-73
2022/03/01 06:40:38;;;;;;;7.18;2.47;;;;;;;0.87;52.57;101288.38;4420019;32;35727;-73
2022/03/01 06:43:25;;;;;;;9.25;2.65;;;;;;;-0.16;55.16;101287.69;4417461;32;33414;-73
2022/03/01 06:46:12;;;;;;;8.52;2.50;;;;;;;0.05;55.05;101289.44;4419064;32;33592;-72
2022/03/01 06:49:02;;;;;;;9.18;3.37;;;;;;;0.38;53.83;101278.75;4414899;32;35188;-72
2022/03/01 06:51:48;;;;;;;5.90;2.10;;;;;;;1.09;51.86;101286.31;4429588;32;34645;-72
2022/03/01 06:54:35;;;;;;;7.28;2.47;;;;;;;0.65;52.60;101281.50;4420567;32;35565;-72
2022/03/01 06:57:21;;;;;;;6.97;2.58;;;;;;;1.02;52.21;101288.19;4420933;32;33749;-72
2022/03/01 07:00:09;;;;;;;5.75;2.47;;;;;;;0.52;53.35;101281.50;4406730;32;34563;-72
2022/03/01 07:02:55;;;;;;;5.93;1.85;;;;;;;0.89;52.52;101275.53;4430066;32;35670;-72
2022/03/01 07:05:42;;;;;;;7.62;2.78;;;;;;;1.27;51.42;101277.56;4418775;32;34639;-72
2022/03/01 07:08:28;;;;;;;5.15;2.37;;;;;;;0.64;53.25;101275.28;4419034;32;33655;-74
2022/03/01 07:11:15;;;;;;;6.12;1.83;;;;;;;0.71;53.36;101271.75;4420919;32;34733;-74
2022/03/01 07:14:01;;;;;;;5.12;1.37;;;;;;;1.03;51.80;101260.16;4429599;32;34674;-74
2022/03/01 07:16:47;;;;;;;4.10;1.60;;;;;;;0.95;50.27;101264.94;4427898;32;35558;-73
2022/03/01 07:19:34;;;;;;;4.50;1.70;;;;;;;0.99;50.61;101261.59;4429669;32;34209;-74
2022/03/01 07:22:21;;;;;;;5.97;2.70;;;;;;;1.16;50.03;101264.72;4425461;32;34608;-73
2022/03/01 07:25:08;;;;;;;22.65;10.52;;;;;;;1.22;50.72;101258.47;4417878;32;34926;-72
2022/03/01 07:27:55;;;;;;;4.25;1.50;;;;;;;1.41;49.97;101258.66;4419863;32;34990;-72
2022/03/01 07:30:42;;;;;;;4.93;2.10;;;;;;;1.42;48.73;101258.44;4430910;32;34336;-74
2022/03/01 07:33:28;;;;;;;5.05;1.95;;;;;;;1.46;49.42;101248.88;4424681;32;34676;-73
2022/03/01 07:36:14;;;;;;;5.28;1.80;;;;;;;1.49;48.40;101243.06;4420868;32;34845;-73
2022/03/01 07:39:01;;;;;;;4.43;1.58;;;;;;;1.71;48.42;101254.44;4430958;32;35021;-73
2022/03/01 07:41:49;;;;;;;4.30;1.50;;;;;;;2.33;48.05;101248.53;4426305;32;35052;-73
2022/03/01 07:44:37;;;;;;;4.80;1.33;;;;;;;2.29;47.04;101248.13;4420817;32;34550;-74
2022/03/01 07:47:23;;;;;;;7.53;1.55;;;;;;;2.20;46.52;101250.28;4432793;32;35665;-74
2022/03/01 07:50:14;;;;;;;3.62;1.77;;;;;;;2.27;46.77;101239.41;4433372;32;34727;-75
2022/03/01 07:53:01;;;;;;;5.20;1.60;;;;;;;2.41;45.65;101242.88;4413858;32;35139;-74
2022/03/01 07:55:47;;;;;;;3.95;1.70;;;;;;;3.00;44.89;101243.47;4432616;32;34595;-73
2022/03/01 07:58:33;;;;;;;5.82;1.75;;;;;;;2.91;44.29;101246.47;4420723;32;34971;-73
2022/03/01 08:01:20;;;;;;;5.45;1.52;;;;;;;3.02;44.04;101242.22;4425736;32;34776;-73
2022/03/01 08:04:07;;;;;;;3.62;1.60;;;;;;;2.82;43.94;101242.38;4431064;32;34781;-73
2022/03/01 08:06:53;;;;;;;5.55;1.52;;;;;;;3.33;43.30;101248.56;4421477;32;34616;-73
2022/03/01 08:09:40;;;;;;;5.57;2.03;;;;;;;3.42;42.95;101249.97;4431404;32;35008;-73
2022/03/01 08:12:27;;;;;;;3.40;1.40;;;;;;;2.98;43.40;101249.09;4421077;32;34288;-72
2022/03/01 08:15:14;;;;;;;3.28;1.10;;;;;;;2.95;43.23;101241.44;4433420;32;34266;-73
2022/03/01 08:18:00;;;;;;;4.87;1.85;;;;;;;3.23;42.58;101243.69;4421190;32;34629;-74
2022/03/01 08:20:47;;;;;;;3.00;1.17;;;;;;;4.00;43.31;101245.97;4428834;32;34639;-74
2022/03/01 08:23:33;;;;;;;3.70;1.40;;;;;;;3.90;41.38;101251.94;4430380;32;34860;-74
2022/03/01 08:26:20;;;;;;;4.32;1.33;;;;;;;3.59;41.61;101255.62;4422256;32;34361;-75
2022/03/01 08:29:06;;;;;;;5.12;1.55;;;;;;;3.42;42.63;101249.97;4409256;32;35110;-75
2022/03/01 08:31:53;;;;;;;3.58;1.40;;;;;;;4.06;41.94;101248.56;4430755;32;35618;-73
2022/03/01 08:34:39;;;;;;;4.15;1.40;;;;;;;3.79;40.39;101245.38;4426583;32;34618;-74
2022/03/01 08:37:26;;;;;;;3.62;1.50;;;;;;;4.10;39.77;101248.97;4421020;32;33874;-74
2022/03/01 08:40:14;;;;;;;4.43;1.23;;;;;;;3.69;40.35;101257.81;4428527;32;34629;-73
2022/03/01 08:43:01;;;;;;;3.92;1.40;;;;;;;4.00;39.22;101238.66;4414429;32;35658;-74
2022/03/01 08:45:47;;;;;;;2.65;1.12;;;;;;;3.56;39.72;101237.94;4428139;32;35544;-73
2022/03/01 08:48:34;;;;;;;3.90;1.00;;;;;;;3.87;39.51;101241.53;4427119;32;35108;-72
2022/03/01 08:51:21;;;;;;;4.53;1.20;;;;;;;3.94;38.88;101234.13;4428415;32;35795;-72
2022/03/01 08:54:08;;;;;;;4.93;1.35;;;;;;;4.67;38.56;101237.72;4420204;32;34986;-73
2022/03/01 08:56:54;;;;;;;3.97;1.45;;;;;;;4.59;38.02;101230.72;4425408;32;34634;-74
2022/03/01 08:59:41;;;;;;;3.75;1.23;;;;;;;5.17;36.65;101226.44;4422216;32;34155;-73
2022/03/01 09:02:27;;;;;;;2.95;1.55;;;;;;;5.09;37.00;101226.78;4410895;32;34538;-72
2022/03/01 09:05:13;;;;;;;4.68;1.40;;;;;;;4.08;38.04;101217.69;4410592;32;35932;-73
2022/03/01 09:08:00;;;;;;;2.90;1.40;;;;;;;4.72;38.46;101216.09;4429709;32;34679;-73
2022/03/01 09:10:46;;;;;;;4.75;1.40;;;;;;;5.27;36.76;101217.69;4409290;32;34680;-75
2022/03/01 09:13:33;;;;;;;3.70;1.48;;;;;;;5.54;36.59;101209.84;4427130;32;34685;-75
2022/03/01 09:16:19;;;;;;;12.60;3.58;;;;;;;6.11;35.63;101215.41;4424071;32;34698;-73
2022/03/01 09:19:05;;;;;;;4.60;1.30;;;;;;;6.46;34.52;101203.50;4428748;32;34459;-73
2022/03/01 09:21:52;;;;;;;3.40;1.70;;;;;;;6.07;35.60;101214.25;4425498;32;33998;-74
2022/03/01 09:24:39;;;;;;;3.67;1.30;;;;;;;7.11;33.63;101207.59;4428589;32;35461;-73
2022/03/01 09:27:26;;;;;;;2.95;1.40;;;;;;;5.07;34.97;101201.75;4428183;32;35649;-74
2022/03/01 09:30:13;;;;;;;2.25;1.20;;;;;;;5.40;34.43;101210.09;4421247;32;34629;-74
2022/03/01 09:33:00;;;;;;;2.62;1.23;;;;;;;6.44;33.95;101197.50;4434963;32;34101;-72
2022/03/01 09:35:47;;;;;;;2.53;1.30;;;;;;;4.65;35.40;101199.94;4428026;32;35112;-74
2022/03/01 09:38:33;;;;;;;3.17;1.33;;;;;;;5.21;35.69;101189.59;4432981;32;35965;-73
2022/03/01 09:41:20;;;;;;;2.75;1.00;;;;;;;6.52;34.10;101186.22;4432855;32;34336;-74
2022/03/01 09:44:06;;;;;;;1.65;1.05;;;;;;;6.39;34.01;101175.63;4419373;32;36014;-75
2022/03/01 09:46:53;;;;;;;3.40;1.20;;;;;;;6.89;33.03;101180.28;4440259;32;35192;-74
2022/03/01 09:49:39;;;;;;;4.85;1.45;;;;;;;7.78;30.92;101174.69;4432332;32;35846;-74
2022/03/01 09:52:31;;;;;;;;;;;;;;;8.96;30.39;101167.62;4432419;32;35039;-74
2022/03/01 09:55:17;;;;;;;5.57;1.35;;;;;;;8.22;28.82;101162.87;4432473;32;35036;-74
2022/03/01 09:58:04;;;;;;;3.62;1.17;;;;;;;9.46;29.00;101150.69;4432062;32;34581;-75
2022/03/01 10:00:50;;;;;;;2.62;1.10;;;;;;;8.85;28.06;101150.34;4432321;32;34996;-74
2022/03/01 10:03:38;;;;;;;4.53;1.67;;;;;;;8.72;28.85;101139.84;4432978;32;36067;-74
2022/03/01 10:06:26;;;;;;;2.85;1.40;;;;;;;9.27;29.87;101135.81;4432318;32;35124;-75
2022/03/01 10:09:22;;;;;;;2.35;1.12;;;;;;;6.70;31.00;101144.28;4432667;32;34602;-73
2022/03/01 10:12:08;;;;;;;4.43;1.33;;;;;;;7.36;30.33;101144.41;4434060;32;35006;-73
2022/03/01 10:15:06;;;;;;;3.17;1.25;;;;;;;6.19;31.72;101141.53;4431510;32;35756;-73
2022/03/01 10:17:52;;;;;;;2.87;1.30;;;;;;;7.57;29.94;101134.59;4425386;32;34236;-73
2022/03/01 10:20:41;;;;;;;3.62;1.27;;;;;;;6.58;30.50;101138.94;4432966;32;34709;-75
2022/03/01 10:23:27;;;;;;;3.17;1.48;;;;;;;8.88;28.24;101124.38;4439837;32;34942;-75
2022/03/01 10:26:16;;;;;;;2.87;1.08;;;;;;;6.72;30.57;101121.19;4432555;32;35570;-75
2022/03/01 10:29:05;;;;;;;3.20;1.37;;;;;;;8.63;28.88;101125.03;4438868;32;100414;-76
2022/03/01 10:31:52;;;;;;;4.50;1.90;;;;;;;6.78;30.70;101115.81;4440026;32;34393;-75
2022/03/01 10:34:39;;;;;;;3.95;1.23;;;;;;;8.11;30.43;101113.62;4430947;32;33922;-75
2022/03/01 10:37:30;;;;;;;3.17;1.12;;;;;;;7.49;30.39;101110.50;4433365;32;34385;-75
2022/03/01 10:40:19;;;;;;;3.60;1.33;;;;;;;9.02;27.46;101100.94;4419663;32;33867;-76
2022/03/01 10:43:12;;;;;;;2.72;1.50;;;;;;;9.79;27.15;101102.09;4421634;32;34797;-75
2022/03/01 10:46:02;;;;;;;3.15;1.50;;;;;;;8.57;27.66;101099.59;4417582;32;34677;-73
2022/03/01 10:49:02;;;;;;;4.75;1.40;;;;;;;8.14;28.57;101089.59;4433014;32;34753;-74
2022/03/01 10:52:07;;;;;;;4.40;1.40;;;;;;;7.49;29.82;101092.22;4426846;32;33895;-74
2022/03/01 10:54:53;;;;;;;3.40;1.40;;;;;;;6.68;30.17;101081.88;4430700;32;35142;-74
2022/03/01 10:57:39;;;;;;;3.00;1.50;;;;;;;6.28;29.65;101063.84;4419800;32;34881;-74
2022/03/01 11:00:26;;;;;;;2.65;1.10;;;;;;;6.88;28.75;101064.19;4432275;32;35187;-74
2022/03/01 11:03:12;;;;;;;3.60;1.37;;;;;;;6.59;28.88;101060.78;4431202;32;35034;-73
2022/03/01 11:06:00;;;;;;;2.70;1.20;;;;;;;7.24;28.42;101064.66;4420309;32;34285;-74
2022/03/01 11:08:47;;;;;;;2.75;1.27;;;;;;;8.18;28.38;101042.44;4423679;32;34645;-74
2022/03/01 11:11:35;;;;;;;3.50;1.62;;;;;;;8.27;27.23;101040.03;4432268;32;34831;-74
2022/03/01 11:14:25;;;;;;;2.60;1.50;;;;;;;8.43;27.25;101035.56;4429264;32;34455;-74
2022/03/01 11:17:39;;;;;;;4.43;1.80;;;;;;;9.35;25.95;101036.84;4431854;32;35319;-74
2022/03/01 11:20:30;;;;;;;3.17;1.58;;;;;;;7.84;28.21;101034.50;4431802;32;34827;-74
2022/03/01 11:23:22;;;;;;;4.03;1.40;;;;;;;7.68;27.58;101026.41;4441606;32;35064;-74
2022/03/01 11:26:11;;;;;;;3.67;1.42;;;;;;;8.21;27.49;101021.97;4432462;32;34869;-74
2022/03/01 11:28:58;;;;;;;4.03;1.48;;;;;;;7.10;27.81;101020.59;4432419;32;34681;-74
2022/03/01 11:31:57;;;;;;;4.25;1.40;;;;;;;7.19;27.21;101008.16;4421018;32;34921;-74
2022/03/01 11:34:45;;;;;;;5.00;1.48;;;;;;;7.06;28.20;101009.38;4431224;32;34735;-75
2022/03/01 11:37:31;;;;;;;3.15;1.50;;;;;;;6.68;27.60;101000.16;4429112;32;35012;-73
2022/03/01 11:40:22;;;;;;;3.72;1.40;;;;;;;6.81;26.69;100990.00;4431363;32;34662;-74
2022/03/01 11:43:16;;;;;;;;;;;;;;;6.52;25.74;100980.09;4424413;32;34698;-74
2022/03/01 11:46:13;;;;;;;4.35;1.40;;;;;;;6.49;26.54;100987.94;4427552;32;34950;-74
2022/03/01 11:49:03;;;;;;;3.45;1.15;;;;;;;6.39;26.98;100985.87;4431188;32;34162;-74
2022/03/01 11:51:54;;;;;;;4.03;1.40;;;;;;;6.93;25.90;100990.69;4433446;32;34804;-75
2022/03/01 11:54:40;;;;;;;2.05;1.00;;;;;;;7.64;25.53;100975.09;4434335;32;35922;-76
2022/03/01 11:57:29;;;;;;;3.62;1.58;;;;;;;8.66;25.59;100960.56;4439768;32;34552;-74
2022/03/01 12:00:16;;;;;;;4.12;1.60;;;;;;;7.39;25.47;100961.22;4430999;32;33816;-74
2022/03/01 12:03:02;;;;;;;2.65;1.10;;;;;;;8.00;25.36;100956.31;4417982;32;34628;-75
2022/03/01 12:05:55;;;;;;;2.83;1.20;;;;;;;7.09;25.16;100948.91;4425545;32;34950;-74
2022/03/01 12:08:41;;;;;;;4.68;1.48;;;;;;;8.22;25.31;100950.69;4431969;32;34403;-74
2022/03/01 12:11:46;;;;;;;3.12;1.40;;;;;;;7.45;25.45;100946.53;4432007;32;34424;-73
2022/03/01 12:14:34;;;;;;;4.57;1.20;;;;;;;7.58;25.52;100950.78;4434046;32;34746;-75
2022/03/01 12:17:20;;;;;;;3.50;1.40;;;;;;;7.56;24.45;100942.84;4432129;32;35992;-74
2022/03/01 12:20:18;;;;;;;2.87;1.30;;;;;;;7.94;24.31;100937.41;4433601;32;34729;-74
2022/03/01 12:23:04;;;;;;;3.75;1.33;;;;;;;7.70;23.75;100931.50;4433670;32;35196;-76
2022/03/01 12:25:50;;;;;;;3.42;1.12;;;;;;;8.24;24.38;100942.25;4433294;32;34702;-76
2022/03/01 12:28:40;;;;;;;2.35;0.90;;;;;;;8.17;24.34;100930.75;4425737;32;34520;-76
2022/03/01 12:31:28;;;;;;;3.28;0.90;;;;;;;8.32;20.84;100928.94;4434759;32;34560;-74
2022/03/01 12:34:14;;;;;;;2.55;1.00;;;;;;;8.64;20.55;100925.28;4432544;32;34593;-76
2022/03/01 12:37:04;;;;;;;2.53;1.00;;;;;;;9.35;21.61;100918.41;4436527;32;34248;-76
2022/03/01 12:39:53;;;;;;;2.08;1.10;;;;;;;9.74;21.95;100915.97;4422005;32;34933;-76
2022/03/01 12:42:40;;;;;;;2.75;0.70;;;;;;;8.73;21.39;100909.22;4423851;32;34686;-75
2022/03/01 12:45:39;;;;;;;2.00;1.20;;;;;;;8.94;20.40;100908.19;4435967;32;33953;-75
2022/03/01 12:48:26;;;;;;;2.47;0.90;;;;;;;9.74;20.37;100905.00;4422310;32;35627;-74
2022/03/01 12:51:12;;;;;;;2.80;1.20;;;;;;;9.56;20.13;100897.34;4434657;32;35973;-74
2022/03/01 12:54:06;;;;;;;2.35;1.10;;;;;;;8.86;21.27;100894.25;4448513;32;35540;-74
2022/03/01 12:56:56;;;;;;;3.53;1.65;;;;;;;9.68;21.29;100895.97;4409928;32;32749;-73
2022/03/01 12:59:44;;;;;;;2.58;1.15;;;;;;;8.58;21.98;100898.22;4421577;32;35504;-76
2022/03/01 13:02:30;;;;;;;2.65;1.30;;;;;;;9.18;20.96;100885.81;4428532;32;34627;-75
2022/03/01 13:05:27;;;;;;;2.80;1.15;;;;;;;9.43;20.96;100887.78;4438710;32;34628;-74
2022/03/01 13:08:17;;;;;;;3.12;1.20;;;;;;;9.81;20.59;100882.81;4420706;32;35244;-75